Time;durP1;ratioP1;P1;durP2;ratioP2;P2;SDS_P1;SDS_P2;PMS_P1;PMS_P2;Temp;Humidity;BMP_temperature;BMP_pressure;BME280_temperature;BME280_humidity;BME280_pressure;Samples;Min_cycle;Max_cycle;Signal;HPM_P1;HPM_P2
2022/08/28 00:00:13;;;;;;;24.02;16.20;;;;;;;24.40;71.79;100878.47;4980499;28;20469;-80
2022/08/28 00:02:40;;;;;;;22.30;17.10;;;;;;;23.96;72.01;100810.56;4987941;28;20569;-79
2022/08/28 00:05:09;;;;;;;26.40;17.98;;;;;;;24.15;71.89;100835.03;4993546;28;20469;-80
2022/08/28 00:07:36;;;;;;;24.42;18.50;;;;;;;24.18;72.05;100843.56;4992685;28;20054;-82
2022/08/28 00:10:04;;;;;;;25.95;18.83;;;;;;;24.18;72.91;100853.59;4989485;28;20120;-81
2022/08/28 00:12:31;;;;;;;21.98;16.48;;;;;;;24.08;73.06;100849.50;4988828;28;20536;-80
2022/08/28 00:14:58;;;;;;;24.08;18.10;;;;;;;24.12;73.13;100855.28;4988596;28;20159;-80
2022/08/28 00:17:24;;;;;;;20.00;15.20;;;;;;;24.15;73.62;100870.28;4988228;28;20156;-82
2022/08/28 00:19:51;;;;;;;22.50;16.00;;;;;;;24.12;73.68;100876.16;4988640;28;20050;-81
2022/08/28 00:22:18;;;;;;;25.85;16.42;;;;;;;24.03;73.70;100867.44;4988578;28;20125;-81
2022/08/28 00:24:44;;;;;;;18.00;15.50;;;;;;;23.71;73.87;100815.06;4973770;28;20113;-82
2022/08/28 00:29:56;;;;;;;19.40;15.32;;;;;;;24.01;74.01;100869.56;4970419;28;20117;-81
2022/08/28 00:32:24;;;;;;;21.88;15.60;;;;;;;24.02;74.17;100876.63;4968846;28;20393;-81
2022/08/28 00:34:51;;;;;;;30.15;19.10;;;;;;;23.95;74.07;100865.84;4968864;28;20042;-80
2022/08/28 00:37:18;;;;;;;23.90;17.13;;;;;;;23.97;74.22;100860.19;4968941;28;20158;-80
2022/08/28 00:39:50;;;;;;;28.33;17.42;;;;;;;23.79;73.94;100828.41;4968464;28;20074;-81
2022/08/28 00:42:17;;;;;;;22.05;15.32;;;;;;;23.82;74.33;100834.22;4968755;28;20589;-81
2022/08/28 00:44:44;;;;;;;21.05;15.75;;;;;;;23.33;74.16;100759.03;4968508;28;20095;-80
2022/08/28 00:47:11;;;;;;;25.77;14.85;;;;;;;23.82;74.52;100849.66;4970094;28;20061;-82
2022/08/28 00:49:46;;;;;;;19.42;14.93;;;;;;;23.09;74.66;100734.38;4968369;28;20047;-80
2022/08/28 00:52:17;;;;;;;18.40;14.70;;;;;;;23.83;74.62;100862.16;4968565;28;20054;-80
2022/08/28 00:54:48;;;;;;;21.85;15.85;;;;;;;23.80;74.75;100858.00;4968774;28;20047;-81
2022/08/28 00:57:35;;;;;;;18.42;14.45;;;;;;;23.18;74.81;100762.88;4968560;28;20514;-81
2022/08/28 01:00:06;;;;;;;15.57;13.82;;;;;;;23.81;74.87;100866.97;4983700;28;20086;-79
2022/08/28 01:02:33;;;;;;;;;;;;;;;23.82;74.91;100865.94;4987648;28;20066;-80
2022/08/28 01:04:59;;;;;;;19.17;14.13;;;;;;;23.85;74.32;100860.06;4988025;28;19938;-80
2022/08/28 01:07:26;;;;;;;22.20;14.60;;;;;;;23.72;74.01;100827.59;4987498;28;20050;-79
2022/08/28 01:09:54;;;;;;;18.05;11.88;;;;;;;23.71;73.56;100825.91;4987715;28;20054;-80
2022/08/28 01:12:26;;;;;;;19.00;12.80;;;;;;;23.76;73.15;100834.25;4987797;28;20490;-80
2022/08/28 01:14:58;;;;;;;15.65;11.77;;;;;;;23.82;72.86;100830.69;4986431;28;20206;-79
2022/08/28 01:17:29;;;;;;;17.05;12.05;;;;;;;23.92;72.54;100844.59;4987003;28;20610;-81
2022/08/28 01:20:01;;;;;;;17.23;12.88;;;;;;;23.19;72.53;100721.19;4988128;28;20042;-82
2022/08/28 01:22:36;;;;;;;13.73;12.25;;;;;;;23.91;72.57;100853.78;4986654;28;20497;-80
2022/08/28 01:25:07;;;;;;;12.75;9.95;;;;;;;23.93;71.92;100851.66;4986162;28;20059;-80
2022/08/28 01:27:33;;;;;;;14.45;11.25;;;;;;;23.96;71.90;100851.25;4967421;28;20086;-82
2022/08/28 01:30:00;;;;;;;18.05;10.05;;;;;;;23.72;70.96;100789.66;4966192;28;20058;-82
2022/08/28 01:32:41;;;;;;;10.10;9.10;;;;;;;24.17;69.54;100841.06;4966159;28;20434;-81
2022/08/28 01:35:13;;;;;;;12.77;9.73;;;;;;;23.61;69.38;100735.06;4983215;28;20082;-82
2022/08/28 01:37:40;;;;;;;14.50;8.75;;;;;;;24.23;69.18;100849.16;4967561;28;20109;-81
2022/08/28 01:40:09;;;;;;;16.15;11.10;;;;;;;24.14;70.33;100847.78;4966619;28;20054;-81
2022/08/28 01:42:42;;;;;;;17.15;9.48;;;;;;;23.85;70.20;100816.69;4966243;28;20062;-82
2022/08/28 01:45:16;;;;;;;9.73;8.82;;;;;;;23.96;70.92;100845.81;4965806;28;20055;-82
2022/08/28 01:47:44;;;;;;;12.88;9.00;;;;;;;23.84;70.73;100837.56;4965951;28;20132;-81
2022/08/28 01:50:15;;;;;;;11.70;9.45;;;;;;;23.45;70.62;100790.63;4965548;28;20058;-82
2022/08/28 01:52:41;;;;;;;17.73;8.18;;;;;;;23.77;70.57;100844.06;4966046;28;20058;-81
2022/08/28 01:55:09;;;;;;;12.73;8.65;;;;;;;23.75;70.61;100848.88;4966321;28;20059;-80
2022/08/28 01:57:48;;;;;;;11.93;9.15;;;;;;;23.56;70.48;100818.91;4968471;28;20051;-81
2022/08/28 02:00:15;;;;;;;10.45;9.13;;;;;;;23.68;70.27;100838.84;4982929;28;20046;-81
2022/08/28 02:02:42;;;;;;;12.10;9.48;;;;;;;23.54;71.23;100815.56;4986511;28;20062;-82
2022/08/28 02:05:10;;;;;;;10.73;9.15;;;;;;;23.50;70.95;100813.53;4986727;28;20062;-81
2022/08/28 02:07:37;;;;;;;10.85;8.93;;;;;;;23.58;70.83;100837.66;4990648;28;20050;-81
2022/08/28 02:10:06;;;;;;;11.73;9.50;;;;;;;23.64;70.99;100845.78;4990354;28;20069;-81
2022/08/28 02:12:34;;;;;;;9.68;8.65;;;;;;;23.71;70.84;100856.56;4986887;28;20046;-80
2022/08/28 02:15:01;;;;;;;11.68;8.38;;;;;;;23.62;70.21;100845.16;4986418;28;20175;-82
2022/08/28 02:17:28;;;;;;;16.92;8.82;;;;;;;23.61;70.17;100848.91;4986107;28;20078;-79
2022/08/28 02:19:54;;;;;;;13.18;9.30;;;;;;;23.62;69.79;100850.56;4986239;28;20050;-82
2022/08/28 02:22:21;;;;;;;9.45;8.32;;;;;;;23.60;69.39;100841.81;4985288;28;20092;-81
2022/08/28 02:24:47;;;;;;;9.23;8.43;;;;;;;23.64;69.81;100853.06;4972196;28;20114;-81
2022/08/28 02:27:14;;;;;;;12.02;9.50;;;;;;;23.50;70.58;100836.03;4982723;28;20050;-81
2022/08/28 02:29:41;;;;;;;12.27;9.68;;;;;;;23.57;71.11;100850.41;4966609;28;20054;-82
2022/08/28 02:32:07;;;;;;;18.80;10.73;;;;;;;23.41;71.03;100829.22;4966542;28;20094;-81
2022/08/28 02:34:35;;;;;;;10.73;9.13;;;;;;;23.45;71.03;100827.75;4966575;28;20047;-82
2022/08/28 02:37:03;;;;;;;12.65;9.15;;;;;;;23.46;71.28;100827.50;4966121;28;20051;-81
2022/08/28 02:39:30;;;;;;;11.35;8.60;;;;;;;23.51;71.02;100832.28;4965255;28;20054;-80
2022/08/28 02:41:56;;;;;;;14.57;10.18;;;;;;;23.54;70.75;100842.69;4965770;28;20277;-81
2022/08/28 02:44:23;;;;;;;10.00;8.88;;;;;;;23.42;71.42;100820.03;4966229;28;20054;-80
2022/08/28 02:46:51;;;;;;;10.27;9.18;;;;;;;23.50;70.91;100836.03;4966472;28;20047;-80
2022/08/28 02:49:19;;;;;;;13.95;8.30;;;;;;;23.24;70.76;100799.91;4965610;28;20062;-80
2022/08/28 02:51:46;;;;;;;9.65;8.02;;;;;;;23.38;70.76;100818.81;4964434;28;20082;-82
2022/08/28 02:54:13;;;;;;;12.98;8.35;;;;;;;23.48;70.51;100843.56;4965395;28;20063;-82
2022/08/28 02:56:44;;;;;;;11.73;8.30;;;;;;;23.44;69.99;100834.19;4964978;28;20051;-81
2022/08/28 02:59:11;;;;;;;10.43;8.25;;;;;;;23.43;70.58;100819.00;4972538;28;20256;-80
2022/08/28 03:01:38;;;;;;;9.98;9.05;;;;;;;23.49;70.73;100828.13;4985329;28;20568;-82
2022/08/28 03:04:05;;;;;;;18.58;10.82;;;;;;;22.73;71.38;100694.31;4985826;28;20089;-81
2022/08/28 03:06:31;;;;;;;12.65;10.00;;;;;;;23.61;71.07;100832.63;4985737;28;20112;-81
2022/08/28 03:08:58;;;;;;;11.02;9.48;;;;;;;23.30;72.02;100792.78;4985356;28;20651;-81
2022/08/28 03:11:26;;;;;;;10.07;8.82;;;;;;;23.42;71.45;100817.31;4985720;28;20051;-80
2022/08/28 03:13:54;;;;;;;10.30;9.02;;;;;;;23.38;71.35;100816.94;4986905;28;20105;-81
2022/08/28 03:16:21;;;;;;;13.68;9.30;;;;;;;23.27;71.08;100803.22;4966537;28;20059;-81
2022/08/28 03:18:47;;;;;;;15.57;9.93;;;;;;;23.27;71.04;100806.75;4966013;28;20055;-81
2022/08/28 03:21:14;;;;;;;12.68;8.40;;;;;;;23.10;71.10;100782.03;4966269;28;20058;-81
2022/08/28 03:23:40;;;;;;;13.20;8.68;;;;;;;22.95;71.71;100759.78;4965852;28;20046;-81
2022/08/28 03:26:11;;;;;;;11.10;8.80;;;;;;;23.13;71.39;100786.19;4967017;28;20055;-82
2022/08/28 03:28:41;;;;;;;12.50;8.70;;;;;;;22.85;71.51;100746.72;4964532;28;20115;-81
2022/08/28 03:31:11;;;;;;;14.00;9.63;;;;;;;22.93;71.40;100756.47;4964746;28;20532;-82
2022/08/28 03:33:39;;;;;;;10.27;9.18;;;;;;;23.22;71.20;100801.97;4964582;28;20086;-82
2022/08/28 03:36:15;;;;;;;10.90;8.77;;;;;;;23.36;70.89;100810.06;4965955;28;20082;-82
2022/08/28 03:38:42;;;;;;;13.75;9.68;;;;;;;23.34;70.95;100809.44;4969211;28;20051;-81
2022/08/28 03:41:11;;;;;;;15.98;9.05;;;;;;;23.14;70.43;100783.28;4969725;28;20055;-81
2022/08/28 03:43:38;;;;;;;13.93;8.80;;;;;;;23.40;70.13;100820.25;4969804;28;20102;-82
2022/08/28 03:46:07;;;;;;;13.25;9.82;;;;;;;23.39;70.35;100823.16;4969420;28;20399;-81
2022/08/28 03:48:36;;;;;;;11.95;9.00;;;;;;;22.90;69.59;100749.59;4969797;28;20121;-80
2022/08/28 03:51:09;;;;;;;17.30;10.60;;;;;;;23.34;69.46;100804.03;4969354;28;20130;-79
2022/08/28 03:53:36;;;;;;;15.27;13.48;;;;;;;23.00;68.51;100760.84;4969751;28;20097;-81
2022/08/28 03:56:08;;;;;;;20.17;12.13;;;;;;;23.49;68.76;100834.38;4969668;28;20058;-82
2022/08/28 03:58:35;;;;;;;13.88;10.88;;;;;;;23.46;68.20;100818.56;4972274;28;20199;-82
2022/08/28 04:01:01;;;;;;;14.93;12.05;;;;;;;23.57;67.92;100820.59;4988818;28;20046;-80
2022/08/28 04:03:28;;;;;;;13.95;11.55;;;;;;;23.21;68.01;100775.97;4989872;28;20417;-80
2022/08/28 04:05:55;;;;;;;16.25;10.20;;;;;;;23.38;68.11;100816.09;4993023;28;20086;-81
2022/08/28 04:08:22;;;;;;;12.50;10.50;;;;;;;23.46;68.36;100830.22;5002421;28;20043;-83
2022/08/28 04:10:49;;;;;;;16.63;9.77;;;;;;;23.33;68.29;100813.22;4999756;28;20050;-82
2022/08/28 04:13:17;;;;;;;13.35;8.93;;;;;;;22.71;68.35;100718.84;4988134;28;20061;-81
2022/08/28 04:15:45;;;;;;;12.02;8.75;;;;;;;23.44;67.96;100834.19;4988967;28;20183;-81
2022/08/28 04:18:12;;;;;;;9.90;8.82;;;;;;;22.98;68.28;100778.34;4988393;28;20278;-80
2022/08/28 04:20:39;;;;;;;16.42;8.60;;;;;;;23.24;68.73;100826.16;4988202;28;20589;-80
2022/08/28 04:23:08;;;;;;;13.25;8.48;;;;;;;23.28;68.84;100837.38;4986561;28;20100;-81
2022/08/28 04:25:39;;;;;;;11.85;8.25;;;;;;;23.28;68.65;100838.22;4969524;28;20051;-81
2022/08/28 04:28:06;;;;;;;10.63;9.63;;;;;;;23.01;68.71;100796.84;4969060;28;20098;-80
2022/08/28 04:30:32;;;;;;;10.05;9.13;;;;;;;23.13;69.03;100827.66;4969069;28;20415;-81
2022/08/28 04:32:59;;;;;;;10.13;7.75;;;;;;;23.21;68.80;100832.84;4968896;28;20059;-82
2022/08/28 04:35:26;;;;;;;11.15;8.98;;;;;;;23.20;68.71;100835.75;4970097;28;20498;-80
2022/08/28 04:37:52;;;;;;;11.02;8.32;;;;;;;23.16;69.04;100829.94;4968876;28;20101;-81
2022/08/28 04:40:24;;;;;;;13.23;8.00;;;;;;;23.13;69.05;100835.78;4969063;28;20406;-81
2022/08/28 04:42:51;;;;;;;14.82;9.10;;;;;;;23.12;69.26;100854.94;4968469;28;20085;-81
2022/08/28 04:45:31;;;;;;;10.13;8.73;;;;;;;22.02;68.88;100679.69;4972510;28;20410;-80
2022/08/28 04:47:58;;;;;;;10.48;9.45;;;;;;;23.14;68.93;100872.66;4968287;28;20063;-82
2022/08/28 04:50:28;;;;;;;10.65;9.07;;;;;;;23.02;69.38;100850.81;4973500;28;20422;-82
2022/08/28 04:52:55;;;;;;;10.45;7.50;;;;;;;23.14;70.06;100875.34;4968170;28;20230;-81
2022/08/28 04:55:21;;;;;;;14.70;8.55;;;;;;;23.14;69.90;100880.78;4969290;28;20062;-80
2022/08/28 04:58:09;;;;;;;10.05;9.02;;;;;;;23.10;69.81;100893.06;4968787;28;20094;-80
2022/08/28 05:00:41;;;;;;;14.80;10.10;;;;;;;22.78;69.99;100849.56;4987188;28;20043;-82
2022/08/28 05:03:10;;;;;;;10.57;9.45;;;;;;;23.14;69.86;100913.25;4987074;28;20069;-81
2022/08/28 05:05:41;;;;;;;13.75;9.00;;;;;;;22.97;69.47;100876.81;4987813;28;20051;-81
2022/08/28 05:08:08;;;;;;;10.65;9.38;;;;;;;23.16;69.51;100911.19;4986829;28;20469;-79
2022/08/28 05:10:35;;;;;;;15.98;9.00;;;;;;;23.09;69.52;100887.88;4979947;28;20054;-81
2022/08/28 05:13:02;;;;;;;15.68;9.45;;;;;;;23.20;69.39;100912.41;4969666;28;20106;-82
2022/08/28 05:15:29;;;;;;;13.32;9.13;;;;;;;22.47;69.24;100792.59;4968310;28;20054;-81
2022/08/28 05:17:55;;;;;;;15.25;10.73;;;;;;;23.25;69.24;100920.75;4968338;28;20109;-83
2022/08/28 05:20:22;;;;;;;14.48;9.70;;;;;;;23.31;69.37;100929.06;4968117;28;20077;-81
2022/08/28 05:22:49;;;;;;;11.45;9.75;;;;;;;23.25;69.27;100934.28;4967710;28;20547;-81
2022/08/28 05:25:20;;;;;;;13.35;8.98;;;;;;;23.12;69.11;100915.34;4967902;28;20054;-81
2022/08/28 05:27:47;;;;;;;16.90;9.82;;;;;;;22.93;69.03;100878.28;4913896;28;20503;-81
2022/08/28 05:30:14;;;;;;;9.90;7.78;;;;;;;23.33;69.04;100948.66;4958908;28;20046;-81
2022/08/28 05:32:41;;;;;;;11.00;9.38;;;;;;;23.24;69.28;100929.06;4985471;28;20050;-81
2022/08/28 05:35:07;;;;;;;10.13;9.10;;;;;;;23.36;68.86;100942.81;4977326;28;20144;-81
2022/08/28 05:37:34;;;;;;;19.23;9.73;;;;;;;22.98;68.65;100887.47;4987451;28;20050;-82
2022/08/28 05:40:01;;;;;;;11.70;10.27;;;;;;;23.14;68.88;100921.38;4969090;28;20421;-81
2022/08/28 05:42:28;;;;;;;17.02;12.63;;;;;;;23.39;68.47;100953.19;4967301;28;20506;-82
2022/08/28 05:44:58;;;;;;;20.58;12.38;;;;;;;23.45;67.89;100946.94;4967503;28;20138;-80
2022/08/28 05:47:25;;;;;;;28.75;19.85;;;;;;;23.45;68.32;100957.78;4967354;28;20059;-80
2022/08/28 05:49:51;;;;;;;28.30;18.30;;;;;;;23.22;68.32;100925.75;4985373;28;20462;-81
2022/08/28 05:52:18;;;;;;;26.20;17.73;;;;;;;23.39;68.71;100958.63;4968233;28;20063;-81
2022/08/28 05:54:45;;;;;;;31.75;22.63;;;;;;;23.35;68.87;100965.50;4968576;28;20665;-81
2022/08/28 05:57:11;;;;;;;32.30;24.52;;;;;;;23.30;68.79;100949.06;4968522;28;20304;-81
2022/08/28 05:59:38;;;;;;;35.38;23.50;;;;;;;23.34;68.87;100972.78;4977994;28;20050;-81
2022/08/28 06:02:05;;;;;;;36.72;24.75;;;;;;;23.14;69.05;100934.94;4986325;28;20518;-81
2022/08/28 06:04:32;;;;;;;34.85;23.77;;;;;;;23.23;69.21;100955.34;4987953;28;20065;-81
2022/08/28 06:06:58;;;;;;;30.35;22.67;;;;;;;23.36;69.10;100975.31;4986980;28;20061;-80
2022/08/28 06:09:27;;;;;;;37.55;23.70;;;;;;;23.35;68.86;100965.50;4986800;28;20073;-81
2022/08/28 06:11:59;;;;;;;32.88;23.25;;;;;;;23.32;69.04;100952.38;4990434;28;20046;-81
2022/08/28 06:14:28;;;;;;;33.55;23.55;;;;;;;23.36;68.44;100950.94;4989995;28;20058;-81
2022/08/28 06:16:58;;;;;;;34.08;23.52;;;;;;;22.77;68.22;100857.91;4989371;28;20051;-80
2022/08/28 06:19:28;;;;;;;28.58;22.65;;;;;;;23.23;67.99;100933.66;4986839;28;20061;-80
2022/08/28 06:21:57;;;;;;;32.20;22.08;;;;;;;23.30;67.85;100949.88;4986690;28;20054;-80
2022/08/28 06:24:26;;;;;;;33.85;23.58;;;;;;;23.61;67.85;100989.81;4974810;28;20372;-80
2022/08/28 06:26:54;;;;;;;33.28;25.00;;;;;;;23.65;67.60;100988.34;4967068;28;20059;-80
2022/08/28 06:29:29;;;;;;;36.53;24.50;;;;;;;23.58;66.95;100952.31;4966954;28;20086;-80
2022/08/28 06:32:03;;;;;;;36.70;24.65;;;;;;;23.61;67.15;100957.28;4966954;28;20074;-82
2022/08/28 06:34:30;;;;;;;31.13;23.23;;;;;;;23.14;67.05;100886.19;4967093;28;20370;-83
2022/08/28 06:37:00;;;;;;;38.30;24.58;;;;;;;23.76;66.43;100969.78;4966742;28;20050;-81
2022/08/28 06:39:26;;;;;;;35.05;22.48;;;;;;;23.53;67.10;100935.03;4966955;28;20307;-81
2022/08/28 06:41:53;;;;;;;29.52;22.23;;;;;;;23.67;66.77;100951.03;4966840;28;20054;-81
2022/08/28 06:44:21;;;;;;;40.85;28.15;;;;;;;23.54;66.69;100918.53;4968001;28;20589;-79
2022/08/28 06:46:50;;;;;;;31.63;23.02;;;;;;;23.99;66.93;100982.84;4966492;28;20051;-80
2022/08/28 06:49:17;;;;;;;32.40;24.13;;;;;;;23.88;66.88;100968.06;4966714;28;20112;-81
2022/08/28 06:51:44;;;;;;;36.92;25.13;;;;;;;23.96;66.79;100966.97;4967627;28;20051;-81
2022/08/28 06:54:10;;;;;;;44.45;28.35;;;;;;;24.02;66.73;100980.50;4966744;28;20055;-82
2022/08/28 06:56:37;;;;;;;40.45;27.63;;;;;;;24.06;67.14;100994.50;4967077;28;20090;-81
2022/08/28 06:59:07;;;;;;;45.60;31.65;;;;;;;23.84;66.88;100948.69;4973145;28;20541;-80
2022/08/28 07:01:40;;;;;;;42.03;28.73;;;;;;;24.03;67.29;100959.63;4986534;28;20062;-81
2022/08/28 07:04:09;;;;;;;47.33;29.45;;;;;;;24.22;66.92;100982.28;4985623;28;20055;-81
2022/08/28 07:06:42;;;;;;;46.42;29.90;;;;;;;24.23;66.89;100962.25;4986078;28;20058;-81
2022/08/28 07:09:12;;;;;;;41.83;27.45;;;;;;;24.37;66.77;100977.41;4985550;28;20143;-80
2022/08/28 07:11:42;;;;;;;44.83;30.85;;;;;;;23.93;66.76;100908.59;4985841;28;20122;-81
2022/08/28 07:14:09;;;;;;;47.65;30.83;;;;;;;24.37;67.05;100976.56;4989715;28;20050;-81
2022/08/28 07:16:37;;;;;;;37.97;25.58;;;;;;;24.44;66.10;100970.06;4989904;28;20368;-81
2022/08/28 07:19:13;;;;;;;33.00;25.85;;;;;;;24.63;65.45;100981.84;4990287;28;20522;-81
2022/08/28 07:21:46;;;;;;;38.47;26.65;;;;;;;24.45;65.49;100955.44;4990750;28;20422;-80
2022/08/28 07:24:15;;;;;;;46.08;30.17;;;;;;;24.67;65.78;100987.66;4963280;28;20070;-82
2022/08/28 07:26:43;;;;;;;44.33;28.85;;;;;;;24.18;65.83;100907.84;4970266;28;20055;-80
2022/08/28 07:29:13;;;;;;;39.80;27.75;;;;;;;24.25;65.92;100920.31;4969879;28;20047;-80
2022/08/28 07:31:43;;;;;;;49.03;29.23;;;;;;;24.83;65.84;100992.56;4970069;28;20569;-80
2022/08/28 07:34:12;;;;;;;39.38;28.55;;;;;;;24.72;65.85;100971.56;4969874;28;20446;-81
2022/08/28 07:36:39;;;;;;;42.90;29.80;;;;;;;24.68;65.94;100973.03;4969944;28;20806;-81
2022/08/28 07:39:08;;;;;;;48.67;31.48;;;;;;;24.83;65.64;100998.00;4969802;28;20054;-82
2022/08/28 07:41:37;;;;;;;41.50;27.67;;;;;;;24.59;65.77;100952.63;4969890;28;20330;-80
2022/08/28 07:46:54;;;;;;;39.60;28.13;;;;;;;24.89;65.33;100986.22;4971156;28;20058;-81
2022/08/28 07:49:20;;;;;;;39.83;29.98;;;;;;;24.87;64.78;100972.03;4969680;28;20522;-80
2022/08/28 07:51:47;;;;;;;41.42;27.20;;;;;;;24.56;64.72;100920.53;4973225;28;20054;-82
2022/08/28 07:54:15;;;;;;;40.35;30.05;;;;;;;25.06;65.30;101023.72;4988298;28;20058;-82
2022/08/28 07:56:44;;;;;;;46.33;30.55;;;;;;;24.92;65.43;100996.66;4988093;28;20509;-81
2022/08/28 07:59:12;;;;;;;50.83;33.08;;;;;;;25.10;65.85;101014.06;4988032;28;20050;-82
2022/08/28 08:01:45;;;;;;;32.75;24.27;;;;;;;25.10;65.03;100997.78;4988804;28;20149;-82
2022/08/28 08:04:14;;;;;;;30.05;23.23;;;;;;;25.21;63.34;100978.03;4987489;28;20351;-81
2022/08/28 08:06:44;;;;;;;34.50;23.67;;;;;;;25.44;63.34;101020.88;4987846;28;20449;-81
2022/08/28 08:09:13;;;;;;;34.13;22.75;;;;;;;25.38;63.15;101011.72;4987343;28;20047;-82
2022/08/28 08:11:40;;;;;;;42.03;29.48;;;;;;;24.99;63.29;100952.31;4988004;28;20050;-80
2022/08/28 08:14:07;;;;;;;33.53;24.55;;;;;;;25.12;63.87;100960.31;4988082;28;20050;-83
2022/08/28 08:16:40;;;;;;;44.35;32.20;;;;;;;25.53;64.44;101018.69;4973345;28;20315;-83
2022/08/28 08:19:08;;;;;;;40.05;26.50;;;;;;;25.57;64.62;101017.19;4968472;28;20058;-82
2022/08/28 08:21:36;;;;;;;37.90;26.35;;;;;;;25.29;64.43;100968.75;4966920;28;20051;-81
2022/08/28 08:24:03;;;;;;;40.65;29.88;;;;;;;25.59;64.34;101006.91;4976701;28;20120;-82
2022/08/28 08:26:31;;;;;;;35.08;26.98;;;;;;;25.76;63.67;101012.59;4987165;28;20046;-80
2022/08/28 08:28:58;;;;;;;41.83;28.50;;;;;;;25.71;64.18;101010.53;4987038;28;20057;-81
2022/08/28 08:31:31;;;;;;;49.17;31.70;;;;;;;25.88;63.49;101009.97;4987124;28;20478;-81
2022/08/28 08:34:00;;;;;;;42.97;30.15;;;;;;;25.75;63.63;101000.88;4987508;28;20050;-82
2022/08/28 08:36:50;;;;;;;48.97;33.13;;;;;;;24.90;64.13;100868.44;4987350;28;20484;-80
2022/08/28 08:39:17;;;;;;;42.22;28.63;;;;;;;25.86;64.51;101012.06;4988170;28;20050;-82
2022/08/28 08:41:48;;;;;;;40.50;28.15;;;;;;;26.01;63.85;101015.22;4987220;28;20050;-81
2022/08/28 08:44:42;;;;;;;36.00;26.17;;;;;;;26.03;63.12;101007.66;5003452;28;20066;-83
2022/08/28 08:47:31;;;;;;;46.20;27.75;;;;;;;25.92;63.44;100983.94;4948567;28;20050;-82
2022/08/28 08:50:01;;;;;;;38.75;27.52;;;;;;;25.94;63.66;100977.22;4948630;28;20102;-82
2022/08/28 08:52:43;;;;;;;51.42;32.22;;;;;;;24.90;63.42;100807.84;4948364;28;20106;-81
2022/08/28 08:55:27;;;;;;;44.10;29.20;;;;;;;26.14;64.18;100998.75;4964060;28;20055;-82
2022/08/28 08:58:27;;;;;;;39.80;29.48;;;;;;;25.47;63.42;100867.41;4962894;28;20059;-81
2022/08/28 09:01:06;;;;;;;42.83;29.23;;;;;;;26.36;63.55;101017.25;4948451;28;20078;-81
2022/08/28 09:04:02;;;;;;;44.08;29.33;;;;;;;26.23;63.54;100985.63;4939709;28;1085532;-81
2022/08/28 09:06:49;;;;;;;49.10;32.60;;;;;;;26.47;63.84;101013.75;4967226;28;20048;-81
2022/08/28 09:09:35;;;;;;;44.13;29.25;;;;;;;26.50;63.26;101013.28;4966732;28;20058;-81
2022/08/28 09:12:05;;;;;;;44.90;27.08;;;;;;;26.57;63.46;101014.06;4966871;28;20375;-82
2022/08/28 09:14:35;;;;;;;45.30;27.75;;;;;;;26.62;63.33;101026.97;4967014;28;20086;-81
2022/08/28 09:17:04;;;;;;;43.28;27.27;;;;;;;26.47;63.26;100970.22;4967566;28;20089;-80
2022/08/28 09:19:31;;;;;;;47.90;28.98;;;;;;;26.92;62.68;101021.47;4968109;28;20058;-81
2022/08/28 09:21:58;;;;;;;41.80;29.67;;;;;;;27.00;62.52;101007.50;4968133;28;20046;-81
2022/08/28 09:24:31;;;;;;;35.72;23.30;;;;;;;25.84;62.32;100808.31;4968276;28;20054;-82
2022/08/28 09:27:00;;;;;;;27.23;18.55;;;;;;;27.37;59.28;101015.47;4967557;28;20054;-81
2022/08/28 09:29:31;;;;;;;28.73;20.15;;;;;;;26.06;59.47;100799.63;4967974;28;20047;-81
2022/08/28 09:32:15;;;;;;;25.48;16.77;;;;;;;27.47;58.70;101012.97;4967902;28;20110;-81
2022/08/28 09:35:00;;;;;;;34.00;20.02;;;;;;;27.60;58.48;101013.78;4959760;28;20098;-81
2022/08/28 09:37:31;;;;;;;26.65;15.35;;;;;;;27.68;57.57;101002.53;4958208;28;20054;-81
2022/08/28 09:40:18;;;;;;;19.40;12.87;;;;;;;27.92;56.15;101017.78;4958683;28;20109;-81
2022/08/28 09:43:47;;;;;;;17.80;12.65;;;;;;;27.88;56.03;101000.22;4972939;28;20677;-81
2022/08/28 09:46:23;;;;;;;17.55;12.90;;;;;;;27.95;56.17;100996.56;4963186;28;20427;-80
2022/08/28 09:48:53;;;;;;;16.48;12.65;;;;;;;27.54;56.34;100908.41;4967032;28;20459;-81
2022/08/28 09:51:19;;;;;;;15.07;12.05;;;;;;;28.37;55.42;101009.91;4968115;28;20050;-81
2022/08/28 09:53:49;;;;;;;20.85;11.88;;;;;;;28.52;55.08;101002.00;4967834;28;20462;-82
2022/08/28 09:56:32;;;;;;;15.70;12.35;;;;;;;28.85;53.98;101016.78;4966804;28;20506;-82
2022/08/28 09:59:06;;;;;;;18.80;14.02;;;;;;;28.64;53.20;100956.31;4972982;28;20058;-80
2022/08/28 10:01:45;;;;;;;12.60;11.25;;;;;;;29.04;53.31;101009.16;4985723;28;20445;-82
2022/08/28 10:04:40;;;;;;;15.95;12.60;;;;;;;29.18;52.48;101005.88;4984466;28;20073;-81
2022/08/28 10:07:45;;;;;;;14.30;11.88;;;;;;;29.25;52.74;100994.75;4986705;28;20185;-82
2022/08/28 10:10:24;;;;;;;18.73;12.85;;;;;;;29.35;52.21;100974.94;4986818;28;20494;-81
2022/08/28 10:13:16;;;;;;;14.07;11.52;;;;;;;29.55;51.59;101005.28;4986718;28;20046;-82
2022/08/28 10:16:02;;;;;;;25.33;14.18;;;;;;;29.73;51.32;101001.44;4986841;28;20054;-82
2022/08/28 10:18:55;;;;;;;15.05;12.63;;;;;;;29.32;50.62;100926.22;4987273;28;20442;-81
2022/08/28 10:21:28;;;;;;;14.48;11.35;;;;;;;29.67;51.29;100942.28;4992600;28;20061;-81
2022/08/28 10:24:18;;;;;;;14.43;11.30;;;;;;;30.18;50.04;101002.25;4980353;28;20051;-82
2022/08/28 10:27:08;;;;;;;18.08;12.45;;;;;;;29.26;49.77;100828.81;4968227;28;20138;-81
2022/08/28 10:29:44;;;;;;;;;;;;;;;30.48;49.64;100995.44;4967716;28;20043;-83
2022/08/28 10:32:32;;;;;;;13.15;11.18;;;;;;;30.55;48.19;100991.41;4967734;28;20000;-82
2022/08/28 10:35:10;;;;;;;18.33;11.38;;;;;;;30.77;48.52;100996.78;4967457;28;20055;-83
2022/08/28 10:38:05;;;;;;;13.43;9.38;;;;;;;30.92;47.38;100995.28;4966745;28;20046;-82
2022/08/28 10:41:13;;;;;;;11.35;8.80;;;;;;;31.01;46.55;100969.84;4967174;28;20051;-81
2022/08/28 10:43:45;;;;;;;12.88;9.05;;;;;;;31.30;46.70;100997.72;4941037;28;20121;-81
2022/08/28 10:46:22;;;;;;;12.38;9.65;;;;;;;31.36;46.68;100993.09;4966996;28;20074;-81
2022/08/28 10:48:59;;;;;;;12.65;10.68;;;;;;;31.08;46.37;100962.22;4967224;28;20065;-81
2022/08/28 10:51:42;;;;;;;13.32;11.60;;;;;;;31.24;46.42;100971.38;4978501;28;20070;-82
2022/08/28 10:54:22;;;;;;;11.82;10.05;;;;;;;31.62;45.51;101002.31;4987261;28;20479;-81
2022/08/28 10:56:55;;;;;;;18.58;9.43;;;;;;;31.71;45.75;100997.16;4986888;28;20094;-81
2022/08/28 10:59:24;;;;;;;9.25;8.07;;;;;;;31.07;44.33;100855.56;4977328;28;20841;-81
2022/08/28 11:01:51;;;;;;;10.40;8.55;;;;;;;32.21;44.45;100994.84;4967929;28;20050;-81
2022/08/28 11:04:21;;;;;;;10.15;9.05;;;;;;;32.17;43.80;100977.28;4967944;28;20514;-81
2022/08/28 11:07:06;;;;;;;11.27;9.45;;;;;;;32.35;43.63;100960.25;4966652;28;20101;-81
2022/08/28 11:09:44;;;;;;;9.55;8.65;;;;;;;32.59;44.44;100968.00;4968285;28;20054;-80
2022/08/28 11:12:17;;;;;;;10.55;8.55;;;;;;;32.65;43.71;100973.22;4966628;28;20310;-81
2022/08/28 11:14:46;;;;;;;13.00;8.75;;;;;;;32.62;43.63;100948.22;4966466;28;20061;-81
2022/08/28 11:17:20;;;;;;;11.07;8.43;;;;;;;32.81;43.56;100970.47;4966635;28;20057;-81
2022/08/28 11:20:08;;;;;;;14.82;8.30;;;;;;;32.90;43.36;100977.88;4966320;28;20071;-81
2022/08/28 11:22:37;;;;;;;9.60;8.18;;;;;;;33.12;42.65;100968.53;4966258;28;20050;-81
2022/08/28 11:25:42;;;;;;;9.02;7.78;;;;;;;33.20;42.81;100957.75;4966855;28;20668;-81
2022/08/28 11:28:23;;;;;;;9.88;7.95;;;;;;;33.39;41.04;100960.72;4982214;28;20050;-82
2022/08/28 11:31:05;;;;;;;10.27;9.20;;;;;;;33.44;40.96;100964.56;4966397;28;20051;-81
2022/08/28 11:33:40;;;;;;;9.70;8.13;;;;;;;33.48;41.28;100963.72;4967610;28;20420;-82
2022/08/28 11:36:20;;;;;;;9.10;8.20;;;;;;;33.50;41.09;100944.16;4966551;28;20399;-81
2022/08/28 11:39:01;;;;;;;9.25;8.18;;;;;;;33.50;40.84;100949.66;4966581;28;20250;-81